createdAt,value
2019-05-13T00:00:53.891Z,0.73
2019-05-13T00:03:19.859Z,1.00
2019-05-13T00:05:47.012Z,1.70
2019-05-13T00:08:14.241Z,1.17
2019-05-13T00:10:43.522Z,1.20
2019-05-13T00:13:08.614Z,1.00
2019-05-13T00:15:35.885Z,1.10
2019-05-13T00:18:03.869Z,1.17
2019-05-13T00:20:30.174Z,1.10
2019-05-13T00:22:57.213Z,1.03
2019-05-13T00:25:24.343Z,0.73
2019-05-13T00:27:53.706Z,0.93
2019-05-13T00:30:18.879Z,1.17
2019-05-13T00:32:46.059Z,1.33
2019-05-13T00:35:14.231Z,1.00
2019-05-13T00:37:40.297Z,1.10
2019-05-13T00:40:07.360Z,0.80
2019-05-13T00:42:34.524Z,0.70
2019-05-13T00:45:03.886Z,0.97
2019-05-13T00:47:28.824Z,0.87
2019-05-13T00:49:55.974Z,0.80
2019-05-13T00:52:23.565Z,0.90
2019-05-13T00:54:50.217Z,0.80
2019-05-13T00:57:17.347Z,0.97
2019-05-13T00:59:44.477Z,0.87
2019-05-13T01:02:13.830Z,1.00
2019-05-13T01:04:38.796Z,1.00
2019-05-13T01:07:05.904Z,1.23
2019-05-13T01:09:34.225Z,0.90
2019-05-13T01:12:00.209Z,0.97
2019-05-13T01:14:27.317Z,0.73
2019-05-13T01:16:54.524Z,0.87
2019-05-13T01:19:23.570Z,1.20
2019-05-13T01:21:48.655Z,1.40
2019-05-13T01:24:15.760Z,0.77
2019-05-13T01:26:43.842Z,0.60
2019-05-13T01:29:10.056Z,1.10
2019-05-13T01:31:37.201Z,0.80
2019-05-13T01:34:04.322Z,0.60
2019-05-13T01:36:33.528Z,1.03
2019-05-13T01:38:58.651Z,0.93
2019-05-13T01:41:25.811Z,1.10
2019-05-13T01:43:54.336Z,0.77
2019-05-13T01:46:20.051Z,1.20
2019-05-13T01:48:47.102Z,0.90
2019-05-13T01:51:14.199Z,1.13
2019-05-13T01:53:41.298Z,0.80
2019-05-13T01:56:08.372Z,0.77
2019-05-13T01:58:35.480Z,0.70
2019-05-13T02:01:04.968Z,0.90
2019-05-13T02:03:29.812Z,0.90
2019-05-13T02:05:56.961Z,0.80
2019-05-13T02:08:24.734Z,0.87
2019-05-13T02:10:54.385Z,0.80
2019-05-13T02:13:20.285Z,0.80
2019-05-13T02:15:47.444Z,0.80
2019-05-13T02:18:14.557Z,0.87
2019-05-13T02:20:44.078Z,0.90
2019-05-13T02:23:09.448Z,0.70
2019-05-13T02:25:36.596Z,1.30
2019-05-13T02:28:09.367Z,0.80
2019-05-13T02:30:34.663Z,1.07
2019-05-13T02:32:58.232Z,0.77
2019-05-13T02:35:25.410Z,0.93
2019-05-13T02:37:52.728Z,0.90
2019-05-13T02:40:22.601Z,0.87
2019-05-13T02:42:46.880Z,1.00
2019-05-13T02:45:14.005Z,0.50
2019-05-13T02:47:44.176Z,0.73
2019-05-13T02:50:08.533Z,0.60
2019-05-13T02:52:35.612Z,0.83
2019-05-13T02:55:04.036Z,0.80
2019-05-13T02:57:32.774Z,1.00
2019-05-13T02:59:57.266Z,0.87
2019-05-13T03:02:24.367Z,0.70
2019-05-13T03:04:52.396Z,0.77
2019-05-13T03:07:18.678Z,0.67
2019-05-13T03:09:45.767Z,1.10
2019-05-13T03:12:13.416Z,0.90
2019-05-13T03:14:45.144Z,0.60
2019-05-13T03:17:12.995Z,0.80
2019-05-13T03:19:38.411Z,0.90
2019-05-13T03:22:05.578Z,0.50
2019-05-13T03:24:33.254Z,0.77
2019-05-13T03:27:02.548Z,0.70
2019-05-13T03:29:27.198Z,0.70
2019-05-13T03:31:56.173Z,0.70
2019-05-13T03:34:26.373Z,1.07
2019-05-13T03:36:48.726Z,0.57
2019-05-13T03:39:16.738Z,1.00
2019-05-13T03:41:42.874Z,0.80
2019-05-13T03:44:13.117Z,0.80
2019-05-13T03:46:38.072Z,0.80
2019-05-13T03:49:05.190Z,0.70
2019-05-13T03:51:32.795Z,0.60
2019-05-13T03:54:02.778Z,0.80
2019-05-13T03:56:26.496Z,0.90
2019-05-13T03:58:53.995Z,0.60
2019-05-13T04:01:22.346Z,0.80
2019-05-13T04:03:47.861Z,0.80
2019-05-13T04:06:14.956Z,0.60
2019-05-13T04:08:43.508Z,0.67
2019-05-13T04:11:12.297Z,0.70
2019-05-13T04:13:36.477Z,0.83
2019-05-13T04:16:04.325Z,0.60
2019-05-13T04:18:31.979Z,0.73
2019-05-13T04:20:57.837Z,0.90
2019-05-13T04:23:25.124Z,0.77
2019-05-13T04:25:53.642Z,0.70
2019-05-13T04:28:22.022Z,0.80
2019-05-13T04:30:46.582Z,0.83
2019-05-13T04:33:14.141Z,1.10
2019-05-13T04:35:42.520Z,0.70
2019-05-13T04:38:10.219Z,0.70
2019-05-13T04:40:35.185Z,1.07
2019-05-13T04:43:03.087Z,0.83
2019-05-13T04:45:32.673Z,0.70
2019-05-13T04:47:56.550Z,0.90
2019-05-13T04:50:23.661Z,0.90
2019-05-13T04:52:52.481Z,1.17
2019-05-13T04:55:18.626Z,1.20
2019-05-13T04:57:45.758Z,1.30
2019-05-13T05:00:13.146Z,1.30
2019-05-13T05:02:53.997Z,1.40
2019-05-13T05:05:41.885Z,1.67
2019-05-13T05:08:18.324Z,1.70
2019-05-13T05:10:55.652Z,1.37
2019-05-13T05:13:32.201Z,1.70
2019-05-13T05:16:02.825Z,1.47
2019-05-13T05:18:38.674Z,1.77
2019-05-13T05:21:11.767Z,1.40
2019-05-13T05:23:51.499Z,1.30
2019-05-13T05:26:32.296Z,1.50
2019-05-13T05:29:14.440Z,1.70
2019-05-13T05:31:52.025Z,1.40
2019-05-13T05:35:27.137Z,1.50
2019-05-13T05:38:07.337Z,1.33
2019-05-13T05:40:34.922Z,1.57
2019-05-13T05:43:02.418Z,1.50
2019-05-13T05:45:29.178Z,1.37
2019-05-13T05:47:56.252Z,1.60
2019-05-13T05:50:23.359Z,1.73
2019-05-13T05:52:51.381Z,1.60
2019-05-13T05:55:17.588Z,1.13
2019-05-13T05:57:44.628Z,1.37
2019-05-13T06:00:11.692Z,1.43
2019-05-13T06:02:42.510Z,1.33
2019-05-13T06:05:06.980Z,1.30
2019-05-13T06:07:34.070Z,1.50
2019-05-13T06:10:02.246Z,1.40
2019-05-13T06:12:28.376Z,1.10
2019-05-13T06:14:55.496Z,1.40
2019-05-13T06:17:22.558Z,1.33
2019-05-13T06:19:51.237Z,1.00
2019-05-13T06:22:16.905Z,1.67
2019-05-13T06:24:43.969Z,1.23
2019-05-13T06:27:11.842Z,1.63
2019-05-13T06:29:38.204Z,1.23
2019-05-13T06:32:17.719Z,1.40
2019-05-13T06:34:33.049Z,1.33
2019-05-13T06:37:01.776Z,1.20
2019-05-13T06:39:26.653Z,1.30
2019-05-13T06:41:53.757Z,0.90
2019-05-13T06:44:21.409Z,1.20
2019-05-13T06:46:47.983Z,1.17
2019-05-13T06:49:15.151Z,1.27
2019-05-13T06:51:42.287Z,1.10
2019-05-13T06:54:11.243Z,1.00
2019-05-13T06:56:36.461Z,1.17
2019-05-13T06:59:03.545Z,1.03
2019-05-13T07:01:32.427Z,1.10
2019-05-13T07:03:58.832Z,1.10
2019-05-13T07:06:27.468Z,1.17
2019-05-13T07:08:53.028Z,0.83
2019-05-13T07:11:22.327Z,1.00
2019-05-13T07:13:47.301Z,1.40
2019-05-13T07:16:14.352Z,1.00
2019-05-13T07:18:41.658Z,1.07
2019-05-13T07:21:08.621Z,1.00
2019-05-13T07:23:35.699Z,1.10
2019-05-13T07:26:02.789Z,1.00
2019-05-13T07:28:32.301Z,1.30
2019-05-13T07:30:57.171Z,0.90
2019-05-13T07:33:24.319Z,1.00
2019-05-13T07:35:57.116Z,1.00
2019-05-13T07:38:18.519Z,0.90
2019-05-13T07:40:45.582Z,0.90
2019-05-13T07:43:12.655Z,0.83
2019-05-13T07:45:42.077Z,1.00
2019-05-13T07:48:19.456Z,0.90
2019-05-13T07:50:34.080Z,0.83
2019-05-13T07:53:02.297Z,0.87
2019-05-13T07:55:28.368Z,0.90
2019-05-13T07:57:55.529Z,0.87
2019-05-13T08:00:22.609Z,0.90
2019-05-13T08:02:52.161Z,1.40
2019-05-13T08:05:16.924Z,1.17
2019-05-13T08:07:44.003Z,1.10
2019-05-13T08:10:11.655Z,0.90
2019-05-13T08:12:38.239Z,0.93
2019-05-13T08:15:05.319Z,0.60
2019-05-13T08:17:32.837Z,1.10
2019-05-13T08:19:59.589Z,0.80
2019-05-13T08:22:26.661Z,1.20
2019-05-13T08:24:54.493Z,0.77
2019-05-13T08:27:29.800Z,1.23
2019-05-13T08:29:48.112Z,0.93
2019-05-13T08:32:15.217Z,0.80
2019-05-13T08:34:42.280Z,0.93
2019-05-13T08:37:11.353Z,0.70
2019-05-13T08:39:38.607Z,1.10
2019-05-13T08:42:15.183Z,0.90
2019-05-13T08:44:32.199Z,0.80
2019-05-13T08:46:57.940Z,1.00
2019-05-13T08:49:25.035Z,0.97
2019-05-13T08:51:52.762Z,0.70
2019-05-13T08:54:21.811Z,0.63
2019-05-13T08:56:46.396Z,0.73
2019-05-13T08:59:13.612Z,0.60
2019-05-13T09:01:42.691Z,1.10
2019-05-13T09:04:08.118Z,0.80
2019-05-13T09:06:35.217Z,0.97
2019-05-13T09:09:02.561Z,0.80
2019-05-13T09:11:31.514Z,0.77
2019-05-13T09:13:56.704Z,0.73
2019-05-13T09:16:23.913Z,0.67
2019-05-13T09:18:52.074Z,0.83
2019-05-13T09:21:18.051Z,0.67
2019-05-13T09:23:45.142Z,0.83
2019-05-13T09:26:12.280Z,0.50
2019-05-13T09:28:41.561Z,0.80
2019-05-13T09:31:06.516Z,0.60
2019-05-13T09:33:33.601Z,0.63
2019-05-13T09:36:02.110Z,0.70
2019-05-13T09:38:27.960Z,0.70
2019-05-13T09:40:55.089Z,0.70
2019-05-13T09:43:22.393Z,0.80
2019-05-13T09:45:49.362Z,0.80
2019-05-13T09:48:16.459Z,0.80
2019-05-13T09:50:43.551Z,0.60
2019-05-13T09:53:11.604Z,0.70
2019-05-13T09:55:38.043Z,0.80
2019-05-13T09:58:05.116Z,0.50
2019-05-13T10:00:32.455Z,0.80
2019-05-13T10:03:02.017Z,0.70
2019-05-13T10:05:26.560Z,0.77
2019-05-13T10:07:53.721Z,0.40
2019-05-13T10:10:22.408Z,0.70
2019-05-13T10:15:15.021Z,0.87
2019-05-13T10:17:42.954Z,0.70
2019-05-13T10:20:11.947Z,0.57
2019-05-13T10:22:36.345Z,0.40
2019-05-13T10:25:03.813Z,0.70
2019-05-13T10:27:32.525Z,0.63
2019-05-13T10:29:58.028Z,0.70
2019-05-13T10:32:25.115Z,0.60
2019-05-13T10:34:52.516Z,0.60
2019-05-13T10:37:21.877Z,0.50
2019-05-13T10:39:46.696Z,0.80
2019-05-13T10:42:13.840Z,0.60
2019-05-13T10:44:42.201Z,0.70
2019-05-13T10:47:08.137Z,0.60
2019-05-13T10:49:35.312Z,0.40
2019-05-13T10:52:03.145Z,0.67
2019-05-13T10:54:32.281Z,0.43
2019-05-13T10:56:59.685Z,0.67
2019-05-13T10:59:23.900Z,0.70
2019-05-13T11:01:51.025Z,0.80
2019-05-13T11:04:18.117Z,0.67
2019-05-13T11:06:45.248Z,0.60
2019-05-13T11:09:13.239Z,0.57
2019-05-13T11:11:41.411Z,0.60
2019-05-13T11:14:11.005Z,0.50
2019-05-13T11:16:33.851Z,0.50
2019-05-13T11:19:02.776Z,0.80
2019-05-13T11:21:28.092Z,0.77
2019-05-13T11:23:55.153Z,0.30
2019-05-13T11:26:22.343Z,0.80
2019-05-13T11:28:51.933Z,0.53
2019-05-13T11:31:16.543Z,0.57
2019-05-13T11:33:43.660Z,0.60
2019-05-13T11:36:12.858Z,0.60
2019-05-13T11:38:37.876Z,0.50
2019-05-13T11:41:04.959Z,0.67
2019-05-13T11:46:01.957Z,0.57
2019-05-13T11:48:26.293Z,0.60
2019-05-13T11:50:54.240Z,0.60
2019-05-13T11:53:33.211Z,0.80
2019-05-13T11:55:47.810Z,0.60
2019-05-13T11:58:15.041Z,0.47
2019-05-13T12:00:53.081Z,0.77
2019-05-13T12:03:22.694Z,0.50
2019-05-13T12:05:46.549Z,0.60
2019-05-13T12:08:13.634Z,0.60
2019-05-13T12:10:44.037Z,0.50
2019-05-13T12:13:07.849Z,0.47
2019-05-13T12:15:46.040Z,0.40
2019-05-13T12:18:02.956Z,0.57
2019-05-13T12:20:32.363Z,0.50
2019-05-13T12:22:56.436Z,0.40
2019-05-13T12:25:23.620Z,0.60
2019-05-13T12:27:51.931Z,0.60
2019-05-13T12:30:17.952Z,0.50
2019-05-13T12:32:45.144Z,0.60
2019-05-13T12:35:13.368Z,0.40
2019-05-13T12:37:41.915Z,0.50
2019-05-13T12:40:06.453Z,0.50
2019-05-13T12:42:33.983Z,0.70
2019-05-13T12:45:09.348Z,0.73
2019-05-13T12:47:27.905Z,0.70
2019-05-13T12:49:55.024Z,0.50
2019-05-13T12:52:22.890Z,0.47
2019-05-13T12:54:49.334Z,0.47
2019-05-13T12:57:16.567Z,0.50
2019-05-13T12:59:43.723Z,0.63
2019-05-13T13:02:13.420Z,0.43
2019-05-13T13:05:06.841Z,0.40
2019-05-13T13:07:07.701Z,0.40
2019-05-13T13:09:35.783Z,0.50
2019-05-13T13:12:03.162Z,0.43
2019-05-13T13:14:38.378Z,0.50
2019-05-13T13:17:03.447Z,0.50
2019-05-13T13:19:26.263Z,0.37
2019-05-13T13:21:53.961Z,0.70
2019-05-13T13:24:23.653Z,0.70
2019-05-13T13:26:47.926Z,0.47
2019-05-13T13:29:15.203Z,0.40
2019-05-13T13:31:43.441Z,0.30
2019-05-13T13:34:16.347Z,0.30
2019-05-13T13:36:36.504Z,0.40
2019-05-13T13:39:05.200Z,0.47
2019-05-13T13:41:32.940Z,0.60
2019-05-13T13:44:04.708Z,0.53
2019-05-13T13:46:42.499Z,0.40
2019-05-13T13:48:55.479Z,0.50
2019-05-13T13:51:26.337Z,0.60
2019-05-13T13:53:48.029Z,0.47
2019-05-13T13:56:15.239Z,0.60
2019-05-13T13:58:43.798Z,0.50
2019-05-13T14:01:17.754Z,0.50
2019-05-13T14:03:36.539Z,0.83
2019-05-13T14:06:06.364Z,0.53
2019-05-13T14:06:25.607Z,0.77
2019-05-13T14:06:29.231Z,0.40
2019-05-13T14:08:30.829Z,0.50
2019-05-13T14:10:57.951Z,0.50
2019-05-13T14:13:25.149Z,0.50
2019-05-13T14:15:52.904Z,0.60
2019-05-13T14:18:23.865Z,1.00
2019-05-13T14:20:46.563Z,0.90
2019-05-13T14:23:13.692Z,0.63
2019-05-13T14:25:42.081Z,1.00
2019-05-13T14:28:07.882Z,0.70
2019-05-13T14:30:34.997Z,0.90
2019-05-13T14:33:02.416Z,0.60
2019-05-13T14:35:29.287Z,0.67
2019-05-13T14:37:56.473Z,0.53
2019-05-13T14:40:23.560Z,0.70
2019-05-13T14:42:52.679Z,1.00
2019-05-13T14:45:20.613Z,0.67
2019-05-13T14:47:44.989Z,0.77
2019-05-13T14:50:12.281Z,0.70
2019-05-13T14:52:41.507Z,0.90
2019-05-13T14:55:06.438Z,0.60
2019-05-13T14:57:33.617Z,0.60
2019-05-13T15:00:02.414Z,0.80
2019-05-13T15:02:27.952Z,0.60
2019-05-13T15:04:55.066Z,0.63
2019-05-13T15:07:22.156Z,0.57
2019-05-13T15:09:51.451Z,0.60
2019-05-13T15:12:16.524Z,0.57
2019-05-13T15:14:44.583Z,0.60
2019-05-13T15:17:12.767Z,0.80
2019-05-13T15:19:38.915Z,0.70
2019-05-13T15:22:06.683Z,0.67
2019-05-13T15:24:33.814Z,0.80
2019-05-13T15:27:00.895Z,0.70
2019-05-13T15:29:28.528Z,0.60
2019-05-13T15:31:55.687Z,0.80
2019-05-13T15:34:22.768Z,0.57
2019-05-13T15:36:50.981Z,0.67
2019-05-13T15:39:17.178Z,0.70
2019-05-13T15:41:44.295Z,0.80
2019-05-13T15:44:11.572Z,0.53
2019-05-13T15:46:38.592Z,0.70
2019-05-13T15:49:05.673Z,0.70
2019-05-13T15:51:32.795Z,0.80
2019-05-13T15:54:02.304Z,0.63
2019-05-13T15:56:27.054Z,0.70
2019-05-13T15:58:54.204Z,0.60
2019-05-13T16:01:22.935Z,0.60
2019-05-13T16:03:48.408Z,0.70
2019-05-13T16:06:15.507Z,0.63
2019-05-13T16:08:43.455Z,0.70
2019-05-13T16:11:12.002Z,0.60
2019-05-13T16:13:37.061Z,0.70
2019-05-13T16:16:04.161Z,0.70
2019-05-13T16:18:31.833Z,0.50
2019-05-13T16:20:58.610Z,0.70
2019-05-13T16:23:25.727Z,0.80
2019-05-13T16:25:52.890Z,0.60
2019-05-13T16:28:20.177Z,0.73
2019-05-13T16:30:47.344Z,0.60
2019-05-13T16:33:14.480Z,0.60
2019-05-13T16:35:42.519Z,0.70
2019-05-13T16:38:11.151Z,0.60
2019-05-13T16:40:36.877Z,0.60
2019-05-13T16:43:03.351Z,0.60
2019-05-13T16:45:31.606Z,0.40
2019-05-13T16:47:59.484Z,0.60
2019-05-13T16:50:24.800Z,0.67
2019-05-13T16:52:52.190Z,0.60
2019-05-13T16:55:21.051Z,0.60
2019-05-13T16:57:46.429Z,0.60
2019-05-13T17:00:13.500Z,0.50
2019-05-13T17:02:42.118Z,0.60
2019-05-13T17:05:07.692Z,0.70
2019-05-13T17:07:34.797Z,0.60
2019-05-13T17:10:03.714Z,0.60
2019-05-13T17:12:29.068Z,0.70
2019-05-13T17:14:56.120Z,0.60
2019-05-13T17:17:23.212Z,0.40
2019-05-13T17:19:53.540Z,0.70
2019-05-13T17:22:17.426Z,0.70
2019-05-13T17:24:44.492Z,0.70
2019-05-13T17:27:12.136Z,0.60
2019-05-13T17:29:38.656Z,0.63
2019-05-13T17:32:05.735Z,0.60
2019-05-13T17:34:32.892Z,0.60
2019-05-13T17:37:02.349Z,0.50
2019-05-13T17:39:27.161Z,0.70
2019-05-13T17:41:54.277Z,0.47
2019-05-13T17:44:21.973Z,0.63
2019-05-13T17:46:48.864Z,0.50
2019-05-13T17:49:15.958Z,0.50
2019-05-13T17:51:43.474Z,0.60
2019-05-13T17:54:11.849Z,0.50
2019-05-13T17:56:37.762Z,0.47
2019-05-13T17:59:04.932Z,0.63
2019-05-13T18:01:33.391Z,0.70
2019-05-13T18:04:02.391Z,0.70
2019-05-13T18:06:27.636Z,0.63
2019-05-13T18:08:54.678Z,0.80
2019-05-13T18:11:22.069Z,0.87
2019-05-13T18:13:51.694Z,0.63
2019-05-13T18:16:16.468Z,0.73
2019-05-13T18:18:47.349Z,0.73
2019-05-13T18:21:11.902Z,1.00
2019-05-13T18:23:37.777Z,0.60
2019-05-13T18:26:04.944Z,0.80
2019-05-13T18:28:32.064Z,0.90
2019-05-13T18:31:01.519Z,0.77
2019-05-13T18:33:26.358Z,0.90
2019-05-13T18:35:53.486Z,0.90
2019-05-13T18:38:21.128Z,0.90
2019-05-13T18:40:48.012Z,0.70
2019-05-13T18:43:15.145Z,0.80
2019-05-13T18:45:42.311Z,0.80
2019-05-13T18:48:09.424Z,0.77
2019-05-13T18:50:36.461Z,0.80
2019-05-13T18:53:03.641Z,0.80
2019-05-13T18:55:30.844Z,0.90
2019-05-13T18:57:57.913Z,0.70
2019-05-13T19:00:24.984Z,0.87
2019-05-13T19:02:52.158Z,0.80
2019-05-13T19:05:21.166Z,0.93
2019-05-13T19:07:46.407Z,0.80
2019-05-13T19:10:13.516Z,0.90
2019-05-13T19:12:41.999Z,0.90
2019-05-13T19:15:07.794Z,0.70
2019-05-13T19:17:36.331Z,0.93
2019-05-13T19:20:02.040Z,0.90
2019-05-13T19:22:29.164Z,1.07
2019-05-13T19:24:56.301Z,0.93
2019-05-13T19:27:23.469Z,1.17
2019-05-13T19:29:52.357Z,1.17
2019-05-13T19:32:17.673Z,0.90
2019-05-13T19:34:44.812Z,1.03
2019-05-13T19:37:11.983Z,1.17
2019-05-13T19:39:39.124Z,1.27
2019-05-13T19:42:06.259Z,1.10
2019-05-13T19:44:33.436Z,1.40
2019-05-13T19:47:01.989Z,1.30
2019-05-13T19:49:32.972Z,1.13
2019-05-13T19:51:54.889Z,1.00
2019-05-13T19:54:22.338Z,1.00
2019-05-13T19:56:51.857Z,1.10
2019-05-13T19:59:16.329Z,1.00
2019-05-13T20:01:43.476Z,1.00
2019-05-13T20:04:10.667Z,0.93
2019-05-13T20:06:37.716Z,1.10
2019-05-13T20:09:05.606Z,1.00
2019-05-13T20:11:32.764Z,0.90
2019-05-13T20:14:01.380Z,1.13
2019-05-13T20:16:27.089Z,1.27
2019-05-13T20:18:54.244Z,1.33
2019-05-13T20:21:21.396Z,0.83
2019-05-13T20:23:48.539Z,0.90
2019-05-13T20:26:15.619Z,1.00
2019-05-13T20:28:42.791Z,1.00
2019-05-13T20:31:11.089Z,1.07
2019-05-13T20:33:40.010Z,0.93
2019-05-13T20:36:04.212Z,1.00
2019-05-13T20:38:31.800Z,1.10
2019-05-13T20:40:58.474Z,0.93
2019-05-13T20:43:25.695Z,0.80
2019-05-13T20:45:52.807Z,0.80
2019-05-13T20:48:21.248Z,0.97
2019-05-13T20:50:47.057Z,1.10
2019-05-13T20:53:14.257Z,0.70
2019-05-13T20:55:41.830Z,0.87
2019-05-13T20:58:08.581Z,0.80
2019-05-13T21:00:35.775Z,1.13
2019-05-13T21:03:02.962Z,0.90
2019-05-13T21:05:31.951Z,1.00
2019-05-13T21:07:57.291Z,1.00
2019-05-13T21:10:24.313Z,0.80
2019-05-13T21:12:51.586Z,0.90
2019-05-13T21:15:18.529Z,0.87
2019-05-13T21:17:45.628Z,0.77
2019-05-13T21:20:19.457Z,0.80
2019-05-13T21:22:42.223Z,0.73
2019-05-13T21:25:07.022Z,0.60
2019-05-13T21:27:34.160Z,0.63
2019-05-13T21:30:01.380Z,0.70
2019-05-13T21:32:28.364Z,0.70
2019-05-13T21:34:55.502Z,0.80
2019-05-13T21:37:22.550Z,0.80
2019-05-13T21:39:51.682Z,0.97
2019-05-13T21:42:17.041Z,0.60
2019-05-13T21:44:44.204Z,0.90
2019-05-13T21:47:11.490Z,0.70
2019-05-13T21:49:38.378Z,0.70
2019-05-13T21:52:05.476Z,0.90
2019-05-13T21:54:33.579Z,0.60
2019-05-13T21:57:02.054Z,0.80
2019-05-13T21:59:26.686Z,0.80
2019-05-13T22:01:53.779Z,0.70
2019-05-13T22:04:21.478Z,0.80
2019-05-13T22:06:48.056Z,0.60
2019-05-13T22:09:15.227Z,0.80
2019-05-13T22:11:42.348Z,0.67
2019-05-13T22:14:11.339Z,1.00
2019-05-13T22:16:36.604Z,0.97
2019-05-13T22:19:03.755Z,0.60
2019-05-13T22:21:31.593Z,0.83
2019-05-13T22:23:58.203Z,0.63
2019-05-13T22:26:25.264Z,0.73
2019-05-13T22:28:52.420Z,0.50
2019-05-13T22:31:22.074Z,0.80
2019-05-13T22:33:46.807Z,0.60
2019-05-13T22:36:13.883Z,0.50
2019-05-13T22:38:42.601Z,0.50
2019-05-13T22:41:08.259Z,0.97
2019-05-13T22:43:35.351Z,0.80
2019-05-13T22:46:02.458Z,0.67
2019-05-13T22:48:31.694Z,0.60
2019-05-13T22:50:56.673Z,0.50
2019-05-13T22:53:23.847Z,0.67
2019-05-13T22:55:52.150Z,0.70
2019-05-13T22:58:18.188Z,1.00
2019-05-13T23:00:45.292Z,0.60
2019-05-13T23:03:12.432Z,0.80
2019-05-13T23:05:41.458Z,0.57
2019-05-13T23:08:06.687Z,0.87
2019-05-13T23:10:33.823Z,0.63
2019-05-13T23:13:02.161Z,0.70
2019-05-13T23:15:28.193Z,0.73
2019-05-13T23:17:55.324Z,0.50
2019-05-13T23:20:22.388Z,0.60
2019-05-13T23:22:51.700Z,0.60
2019-05-13T23:25:16.567Z,0.47
2019-05-13T23:27:43.705Z,0.50
2019-05-13T23:30:11.670Z,0.70
2019-05-13T23:32:37.948Z,0.70
2019-05-13T23:35:05.028Z,0.63
2019-05-13T23:37:32.137Z,0.70
2019-05-13T23:40:01.251Z,0.67
2019-05-13T23:42:26.480Z,0.70
2019-05-13T23:44:53.925Z,0.47
2019-05-13T23:47:21.801Z,0.60
2019-05-13T23:49:48.248Z,0.70
2019-05-13T23:52:15.517Z,0.60
2019-05-13T23:54:42.687Z,0.60
2019-05-13T23:57:11.794Z,0.60
2019-05-13T23:59:36.970Z,0.70
